sensor_id;sensor_type;location;lat;lon;timestamp;pressure;altitude;pressure_sealevel;temperature;humidity
24746;BME280;12845;52.042;6.838;2023-04-25T00:00:18;-18231.25;;;7.55;100.00
24746;BME280;12845;52.042;6.838;2023-04-25T00:02:43;-18226.00;;;7.35;100.00
24746;BME280;12845;52.042;6.838;2023-04-25T00:05:08;-18229.88;;;7.50;100.00
24746;BME280;12845;52.042;6.838;2023-04-25T00:07:34;-18228.06;;;7.43;100.00
24746;BME280;12845;52.042;6.838;2023-04-25T00:10:00;-18227.13;;;7.39;100.00
24746;BME280;12845;52.042;6.838;2023-04-25T00:12:25;-18224.34;;;7.29;100.00
24746;BME280;12845;52.042;6.838;2023-04-25T00:14:53;-18224.22;;;7.29;100.00
24746;BME280;12845;52.042;6.838;2023-04-25T00:17:18;-18224.63;;;7.30;100.00
24746;BME280;12845;52.042;6.838;2023-04-25T00:19:44;-18224.50;;;7.30;100.00
24746;BME280;12845;52.042;6.838;2023-04-25T00:22:11;-18225.31;;;7.33;100.00
24746;BME280;12845;52.042;6.838;2023-04-25T00:24:37;-18225.59;;;7.34;100.00
24746;BME280;12845;52.042;6.838;2023-04-25T00:27:02;-18224.09;;;7.28;100.00
24746;BME280;12845;52.042;6.838;2023-04-25T00:29:28;-18224.34;;;7.29;100.00
24746;BME280;12845;52.042;6.838;2023-04-25T00:31:53;-18224.91;;;7.31;100.00
24746;BME280;12845;52.042;6.838;2023-04-25T00:34:19;-18227.66;;;7.41;100.00
24746;BME280;12845;52.042;6.838;2023-04-25T00:36:44;-18228.50;;;7.44;100.00
24746;BME280;12845;52.042;6.838;2023-04-25T00:39:10;-18228.75;;;7.45;100.00
24746;BME280;12845;52.042;6.838;2023-04-25T00:41:35;-18228.91;;;7.46;100.00
24746;BME280;12845;52.042;6.838;2023-04-25T00:44:03;-18225.59;;;7.34;100.00
24746;BME280;12845;52.042;6.838;2023-04-25T00:46:30;-18225.19;;;7.32;100.00
24746;BME280;12845;52.042;6.838;2023-04-25T00:48:56;-18223.41;;;7.26;100.00
24746;BME280;12845;52.042;6.838;2023-04-25T00:51:21;-18222.97;;;7.24;100.00
24746;BME280;12845;52.042;6.838;2023-04-25T00:53:48;-18222.28;;;7.21;100.00
24746;BME280;12845;52.042;6.838;2023-04-25T00:56:15;-18221.06;;;7.17;100.00
24746;BME280;12845;52.042;6.838;2023-04-25T00:58:41;-18220.22;;;7.14;100.00
24746;BME280;12845;52.042;6.838;2023-04-25T01:01:07;-18219.66;;;7.12;100.00
24746;BME280;12845;52.042;6.838;2023-04-25T01:03:33;-18218.28;;;7.07;100.00
24746;BME280;12845;52.042;6.838;2023-04-25T01:06:01;-18217.47;;;7.04;100.00
24746;BME280;12845;52.042;6.838;2023-04-25T01:08:28;-18216.50;;;7.00;100.00
24746;BME280;12845;52.042;6.838;2023-04-25T01:10:53;-18215.81;;;6.97;100.00
24746;BME280;12845;52.042;6.838;2023-04-25T01:13:18;-18217.06;;;7.02;100.00
24746;BME280;12845;52.042;6.838;2023-04-25T01:15:45;-18217.06;;;7.02;100.00
24746;BME280;12845;52.042;6.838;2023-04-25T01:18:10;-18216.91;;;7.01;100.00
24746;BME280;12845;52.042;6.838;2023-04-25T01:20:37;-18215.94;;;6.98;100.00
24746;BME280;12845;52.042;6.838;2023-04-25T01:23:03;-18215.00;;;6.94;100.00
24746;BME280;12845;52.042;6.838;2023-04-25T01:25:30;-18215.00;;;6.94;100.00
24746;BME280;12845;52.042;6.838;2023-04-25T01:27:57;-18215.00;;;6.94;100.00
24746;BME280;12845;52.042;6.838;2023-04-25T01:30:22;-18217.88;;;7.05;100.00
24746;BME280;12845;52.042;6.838;2023-04-25T01:32:49;-18216.09;;;6.98;100.00
24746;BME280;12845;52.042;6.838;2023-04-25T01:35:14;-18215.81;;;6.97;100.00
24746;BME280;12845;52.042;6.838;2023-04-25T01:37:41;-18216.63;;;7.00;100.00
24746;BME280;12845;52.042;6.838;2023-04-25T01:40:08;-18215.00;;;6.94;100.00
24746;BME280;12845;52.042;6.838;2023-04-25T01:42:36;-18213.59;;;6.89;100.00
24746;BME280;12845;52.042;6.838;2023-04-25T01:45:02;-18213.34;;;6.88;100.00
24746;BME280;12845;52.042;6.838;2023-04-25T01:47:28;-18212.91;;;6.87;100.00
24746;BME280;12845;52.042;6.838;2023-04-25T01:49:54;-18213.06;;;6.87;100.00
24746;BME280;12845;52.042;6.838;2023-04-25T01:52:20;-18211.53;;;6.82;100.00
24746;BME280;12845;52.042;6.838;2023-04-25T01:54:45;-18212.38;;;6.85;100.00
24746;BME280;12845;52.042;6.838;2023-04-25T01:57:11;-18212.22;;;6.84;100.00
24746;BME280;12845;52.042;6.838;2023-04-25T01:59:37;-18219.94;;;7.13;100.00
24746;BME280;12845;52.042;6.838;2023-04-25T02:02:03;-18215.00;;;6.94;100.00
24746;BME280;12845;52.042;6.838;2023-04-25T02:04:32;-18213.59;;;6.89;100.00
24746;BME280;12845;52.042;6.838;2023-04-25T02:06:57;-18212.50;;;6.85;100.00
24746;BME280;12845;52.042;6.838;2023-04-25T02:09:23;-18210.16;;;6.76;100.00
24746;BME280;12845;52.042;6.838;2023-04-25T02:11:48;-18207.97;;;6.68;100.00
24746;BME280;12845;52.042;6.838;2023-04-25T02:14:14;-18212.09;;;6.84;100.00
24746;BME280;12845;52.042;6.838;2023-04-25T02:16:39;-18212.78;;;6.86;100.00
24746;BME280;12845;52.042;6.838;2023-04-25T02:19:05;-18212.78;;;6.86;100.00
24746;BME280;12845;52.042;6.838;2023-04-25T02:21:30;-18212.09;;;6.84;100.00
24746;BME280;12845;52.042;6.838;2023-04-25T02:23:56;-18212.22;;;6.84;100.00
24746;BME280;12845;52.042;6.838;2023-04-25T02:26:22;-18211.41;;;6.81;100.00
24746;BME280;12845;52.042;6.838;2023-04-25T02:28:49;-18212.22;;;6.84;100.00
24746;BME280;12845;52.042;6.838;2023-04-25T02:31:14;-18213.59;;;6.89;100.00
24746;BME280;12845;52.042;6.838;2023-04-25T02:33:40;-18212.91;;;6.87;100.00
24746;BME280;12845;52.042;6.838;2023-04-25T02:36:06;-18213.06;;;6.87;100.00
24746;BME280;12845;52.042;6.838;2023-04-25T02:38:31;-18212.22;;;6.84;100.00
24746;BME280;12845;52.042;6.838;2023-04-25T02:40:56;-18210.31;;;6.77;100.00
24746;BME280;12845;52.042;6.838;2023-04-25T02:43:22;-18212.91;;;6.87;100.00
24746;BME280;12845;52.042;6.838;2023-04-25T02:45:47;-18213.88;;;6.90;100.00
24746;BME280;12845;52.042;6.838;2023-04-25T02:48:12;-18208.91;;;6.72;100.00
24746;BME280;12845;52.042;6.838;2023-04-25T02:50:38;-18212.22;;;6.84;100.00
24746;BME280;12845;52.042;6.838;2023-04-25T02:53:03;-18208.78;;;6.71;100.00
24746;BME280;12845;52.042;6.838;2023-04-25T02:55:29;-18210.56;;;6.78;100.00
24746;BME280;12845;52.042;6.838;2023-04-25T02:57:54;-18213.06;;;6.87;100.00
24746;BME280;12845;52.042;6.838;2023-04-25T03:00:21;-18213.06;;;6.87;100.00
24746;BME280;12845;52.042;6.838;2023-04-25T03:02:47;-18211.69;;;6.82;100.00
24746;BME280;12845;52.042;6.838;2023-04-25T03:05:12;-18207.97;;;6.68;100.00
24746;BME280;12845;52.042;6.838;2023-04-25T03:07:37;-18207.41;;;6.66;100.00
24746;BME280;12845;52.042;6.838;2023-04-25T03:10:07;-18205.63;;;6.60;100.00
24746;BME280;12845;52.042;6.838;2023-04-25T03:12:33;-18206.44;;;6.63;100.00
24746;BME280;12845;52.042;6.838;2023-04-25T03:14:58;-18209.06;;;6.72;100.00
24746;BME280;12845;52.042;6.838;2023-04-25T03:17:23;-18206.16;;;6.62;100.00
24746;BME280;12845;52.042;6.838;2023-04-25T03:19:49;-18211.00;;;6.80;100.00
24746;BME280;12845;52.042;6.838;2023-04-25T03:22:14;-18210.31;;;6.77;100.00
24746;BME280;12845;52.042;6.838;2023-04-25T03:24:40;-18207.28;;;6.66;100.00
24746;BME280;12845;52.042;6.838;2023-04-25T03:27:05;-18205.34;;;6.59;100.00
24746;BME280;12845;52.042;6.838;2023-04-25T03:29:30;-18203.41;;;6.51;100.00
24746;BME280;12845;52.042;6.838;2023-04-25T03:31:56;-18204.22;;;6.54;100.00
24746;BME280;12845;52.042;6.838;2023-04-25T03:34:21;-18205.47;;;6.59;100.00
24746;BME280;12845;52.042;6.838;2023-04-25T03:36:47;-18203.41;;;6.51;100.00
24746;BME280;12845;52.042;6.838;2023-04-25T03:39:12;-18206.31;;;6.62;100.00
24746;BME280;12845;52.042;6.838;2023-04-25T03:41:37;-18206.16;;;6.62;100.00
24746;BME280;12845;52.042;6.838;2023-04-25T03:44:03;-18203.81;;;6.53;100.00
24746;BME280;12845;52.042;6.838;2023-04-25T03:46:28;-18204.78;;;6.57;100.00
24746;BME280;12845;52.042;6.838;2023-04-25T03:48:54;-18203.69;;;6.52;100.00
24746;BME280;12845;52.042;6.838;2023-04-25T03:51:19;-18200.38;;;6.40;100.00
24746;BME280;12845;52.042;6.838;2023-04-25T03:53:44;-18201.06;;;6.43;100.00
24746;BME280;12845;52.042;6.838;2023-04-25T03:56:10;-18201.75;;;6.45;100.00
24746;BME280;12845;52.042;6.838;2023-04-25T03:58:35;-18200.09;;;6.39;100.00
24746;BME280;12845;52.042;6.838;2023-04-25T04:01:01;-18200.94;;;6.42;100.00
24746;BME280;12845;52.042;6.838;2023-04-25T04:03:28;-18196.78;;;6.27;100.00
24746;BME280;12845;52.042;6.838;2023-04-25T04:05:54;-18198.84;;;6.35;100.00
24746;BME280;12845;52.042;6.838;2023-04-25T04:08:19;-18194.59;;;6.19;100.00
24746;BME280;12845;52.042;6.838;2023-04-25T04:10:44;-18196.78;;;6.27;100.00
24746;BME280;12845;52.042;6.838;2023-04-25T04:13:10;-18194.72;;;6.19;100.00
24746;BME280;12845;52.042;6.838;2023-04-25T04:15:35;-18194.59;;;6.19;100.00
24746;BME280;12845;52.042;6.838;2023-04-25T04:18:01;-18191.97;;;6.09;100.00
24746;BME280;12845;52.042;6.838;2023-04-25T04:20:29;-18193.75;;;6.16;100.00
24746;BME280;12845;52.042;6.838;2023-04-25T04:22:55;-18194.44;;;6.18;100.00
24746;BME280;12845;52.042;6.838;2023-04-25T04:25:20;-18197.91;;;6.31;100.00
24746;BME280;12845;52.042;6.838;2023-04-25T04:27:46;-18196.94;;;6.27;100.00
24746;BME280;12845;52.042;6.838;2023-04-25T04:30:11;-18194.03;;;6.17;100.00
24746;BME280;12845;52.042;6.838;2023-04-25T04:32:37;-18193.34;;;6.14;100.00
24746;BME280;12845;52.042;6.838;2023-04-25T04:35:03;-18195.41;;;6.22;100.00
24746;BME280;12845;52.042;6.838;2023-04-25T04:37:29;-18194.16;;;6.17;100.00
24746;BME280;12845;52.042;6.838;2023-04-25T04:39:55;-18194.03;;;6.17;100.00
24746;BME280;12845;52.042;6.838;2023-04-25T04:42:21;-18193.75;;;6.16;100.00
24746;BME280;12845;52.042;6.838;2023-04-25T04:44:46;-18192.94;;;6.13;100.00
24746;BME280;12845;52.042;6.838;2023-04-25T04:47:12;-18190.31;;;6.03;100.00
24746;BME280;12845;52.042;6.838;2023-04-25T04:49:39;-18193.63;;;6.15;100.00
24746;BME280;12845;52.042;6.838;2023-04-25T04:52:05;-18195.53;;;6.22;100.00
24746;BME280;12845;52.042;6.838;2023-04-25T04:54:30;-18195.97;;;6.24;100.00
24746;BME280;12845;52.042;6.838;2023-04-25T04:56:55;-18196.50;;;6.26;100.00
24746;BME280;12845;52.042;6.838;2023-04-25T04:59:21;-18196.78;;;6.27;100.00
24746;BME280;12845;52.042;6.838;2023-04-25T05:01:46;-18194.31;;;6.18;100.00
24746;BME280;12845;52.042;6.838;2023-04-25T05:04:12;-18196.09;;;6.24;100.00
24746;BME280;12845;52.042;6.838;2023-04-25T05:06:37;-18195.41;;;6.22;100.00
24746;BME280;12845;52.042;6.838;2023-04-25T05:09:03;-18195.69;;;6.23;100.00
24746;BME280;12845;52.042;6.838;2023-04-25T05:11:29;-18197.06;;;6.28;100.00
24746;BME280;12845;52.042;6.838;2023-04-25T05:13:54;-18198.16;;;6.32;100.00
24746;BME280;12845;52.042;6.838;2023-04-25T05:16:19;-18201.06;;;6.43;100.00
24746;BME280;12845;52.042;6.838;2023-04-25T05:18:46;-18195.28;;;6.21;100.00
24746;BME280;12845;52.042;6.838;2023-04-25T05:21:11;-18197.47;;;6.29;100.00
24746;BME280;12845;52.042;6.838;2023-04-25T05:23:36;-18193.19;;;6.14;100.00
24746;BME280;12845;52.042;6.838;2023-04-25T05:26:02;-18195.41;;;6.22;100.00
24746;BME280;12845;52.042;6.838;2023-04-25T05:28:27;-18195.41;;;6.22;100.00
24746;BME280;12845;52.042;6.838;2023-04-25T05:30:52;-18192.25;;;6.10;100.00
24746;BME280;12845;52.042;6.838;2023-04-25T05:33:18;-18190.84;;;6.05;100.00
24746;BME280;12845;52.042;6.838;2023-04-25T05:35:44;-18192.09;;;6.09;100.00
24746;BME280;12845;52.042;6.838;2023-04-25T05:38:10;-18193.06;;;6.13;100.00
24746;BME280;12845;52.042;6.838;2023-04-25T05:40:35;-18192.66;;;6.12;100.00
24746;BME280;12845;52.042;6.838;2023-04-25T05:43:00;-18192.09;;;6.09;100.00
24746;BME280;12845;52.042;6.838;2023-04-25T05:45:26;-18192.50;;;6.11;100.00
24746;BME280;12845;52.042;6.838;2023-04-25T05:47:51;-18193.06;;;6.13;100.00
24746;BME280;12845;52.042;6.838;2023-04-25T05:50:17;-18193.91;;;6.16;100.00
24746;BME280;12845;52.042;6.838;2023-04-25T05:52:42;-18197.47;;;6.29;100.00
24746;BME280;12845;52.042;6.838;2023-04-25T05:55:08;-18197.91;;;6.31;100.00
24746;BME280;12845;52.042;6.838;2023-04-25T05:57:33;-18196.25;;;6.25;100.00
24746;BME280;12845;52.042;6.838;2023-04-25T05:59:59;-18200.09;;;6.39;100.00
24746;BME280;12845;52.042;6.838;2023-04-25T06:02:24;-18196.09;;;6.24;100.00
24746;BME280;12845;52.042;6.838;2023-04-25T06:04:50;-18197.91;;;6.31;100.00
24746;BME280;12845;52.042;6.838;2023-04-25T06:07:16;-18201.06;;;6.43;100.00
24746;BME280;12845;52.042;6.838;2023-04-25T06:09:43;-18200.25;;;6.40;100.00
24746;BME280;12845;52.042;6.838;2023-04-25T06:12:08;-18199.28;;;6.36;100.00
24746;BME280;12845;52.042;6.838;2023-04-25T06:14:34;-18199.28;;;6.36;100.00
24746;BME280;12845;52.042;6.838;2023-04-25T06:16:59;-18201.47;;;6.44;100.00
24746;BME280;12845;52.042;6.838;2023-04-25T06:19:31;-18201.19;;;6.43;100.00
24746;BME280;12845;52.042;6.838;2023-04-25T06:21:56;-18204.38;;;6.55;100.00
24746;BME280;12845;52.042;6.838;2023-04-25T06:24:22;-18201.19;;;6.43;100.00
24746;BME280;12845;52.042;6.838;2023-04-25T06:26:47;-18205.19;;;6.58;100.00
24746;BME280;12845;52.042;6.838;2023-04-25T06:29:12;-18206.56;;;6.63;100.00
24746;BME280;12845;52.042;6.838;2023-04-25T06:31:38;-18207.53;;;6.67;100.00
24746;BME280;12845;52.042;6.838;2023-04-25T06:34:03;-18208.66;;;6.71;100.00
24746;BME280;12845;52.042;6.838;2023-04-25T06:36:28;-18210.31;;;6.77;100.00
24746;BME280;12845;52.042;6.838;2023-04-25T06:38:54;-18209.88;;;6.75;100.00
24746;BME280;12845;52.042;6.838;2023-04-25T06:41:22;-18210.31;;;6.77;100.00
24746;BME280;12845;52.042;6.838;2023-04-25T06:43:47;-18209.75;;;6.75;100.00
24746;BME280;12845;52.042;6.838;2023-04-25T06:46:12;-18210.72;;;6.78;100.00
24746;BME280;12845;52.042;6.838;2023-04-25T06:48:38;-18208.22;;;6.69;100.00
24746;BME280;12845;52.042;6.838;2023-04-25T06:51:03;-18211.41;;;6.81;100.00
24746;BME280;12845;52.042;6.838;2023-04-25T06:53:29;-18208.66;;;6.71;100.00
24746;BME280;12845;52.042;6.838;2023-04-25T06:55:54;-18205.75;;;6.60;100.00
24746;BME280;12845;52.042;6.838;2023-04-25T06:58:19;-18207.13;;;6.65;100.00
24746;BME280;12845;52.042;6.838;2023-04-25T07:00:45;-18209.34;;;6.73;100.00
24746;BME280;12845;52.042;6.838;2023-04-25T07:03:10;-18209.47;;;6.74;100.00
24746;BME280;12845;52.042;6.838;2023-04-25T07:05:35;-18209.59;;;6.74;100.00
24746;BME280;12845;52.042;6.838;2023-04-25T07:08:01;-18209.19;;;6.73;100.00
24746;BME280;12845;52.042;6.838;2023-04-25T07:10:26;-18210.44;;;6.77;100.00
24746;BME280;12845;52.042;6.838;2023-04-25T07:12:51;-18211.13;;;6.80;100.00
24746;BME280;12845;52.042;6.838;2023-04-25T07:15:17;-18211.41;;;6.81;100.00
24746;BME280;12845;52.042;6.838;2023-04-25T07:17:42;-18212.50;;;6.85;100.00
24746;BME280;12845;52.042;6.838;2023-04-25T07:20:08;-18212.78;;;6.86;100.00
24746;BME280;12845;52.042;6.838;2023-04-25T07:22:34;-18212.50;;;6.85;100.00
24746;BME280;12845;52.042;6.838;2023-04-25T07:25:00;-18212.66;;;6.86;100.00
24746;BME280;12845;52.042;6.838;2023-04-25T07:27:25;-18216.38;;;6.99;100.00
24746;BME280;12845;52.042;6.838;2023-04-25T07:29:50;-18217.06;;;7.02;100.00
24746;BME280;12845;52.042;6.838;2023-04-25T07:32:16;-18218.84;;;7.09;100.00
24746;BME280;12845;52.042;6.838;2023-04-25T07:34:41;-18222.97;;;7.24;100.00
24746;BME280;12845;52.042;6.838;2023-04-25T07:37:07;-18225.88;;;7.35;100.00
24746;BME280;12845;52.042;6.838;2023-04-25T07:39:32;-18228.75;;;7.45;100.00
24746;BME280;12845;52.042;6.838;2023-04-25T07:41:57;-18237.59;;;7.78;100.00
24746;BME280;12845;52.042;6.838;2023-04-25T07:44:27;-18240.06;;;7.87;100.00
24746;BME280;12845;52.042;6.838;2023-04-25T07:46:52;-18235.78;;;7.72;100.00
24746;BME280;12845;52.042;6.838;2023-04-25T07:49:18;-18234.56;;;7.67;100.00
24746;BME280;12845;52.042;6.838;2023-04-25T07:51:43;-18231.53;;;7.56;100.00
24746;BME280;12845;52.042;6.838;2023-04-25T07:54:09;-18233.16;;;7.62;100.00
24746;BME280;12845;52.042;6.838;2023-04-25T07:56:35;-18237.72;;;7.79;100.00
24746;BME280;12845;52.042;6.838;2023-04-25T07:59:00;-18241.16;;;7.91;100.00
24746;BME280;12845;52.042;6.838;2023-04-25T08:01:26;-18243.78;;;8.01;100.00
24746;BME280;12845;52.042;6.838;2023-04-25T08:03:52;-18240.75;;;7.90;100.00
24746;BME280;12845;52.042;6.838;2023-04-25T08:06:18;-18243.09;;;7.99;100.00
24746;BME280;12845;52.042;6.838;2023-04-25T08:08:43;-18242.94;;;7.98;100.00
24746;BME280;12845;52.042;6.838;2023-04-25T08:11:08;-18239.78;;;7.86;100.00
24746;BME280;12845;52.042;6.838;2023-04-25T08:13:34;-18242.81;;;7.98;100.00
24746;BME280;12845;52.042;6.838;2023-04-25T08:15:59;-18244.59;;;8.04;100.00
24746;BME280;12845;52.042;6.838;2023-04-25T08:18:25;-18244.75;;;8.05;100.00
24746;BME280;12845;52.042;6.838;2023-04-25T08:20:50;-18240.06;;;7.87;100.00
24746;BME280;12845;52.042;6.838;2023-04-25T08:23:16;-18242.53;;;7.97;100.00
24746;BME280;12845;52.042;6.838;2023-04-25T08:25:41;-18245.16;;;8.06;100.00
24746;BME280;12845;52.042;6.838;2023-04-25T08:28:06;-18246.13;;;8.10;100.00
24746;BME280;12845;52.042;6.838;2023-04-25T08:30:32;-18246.38;;;8.11;100.00
24746;BME280;12845;52.042;6.838;2023-04-25T08:32:57;-18248.88;;;8.20;100.00
24746;BME280;12845;52.042;6.838;2023-04-25T08:35:23;-18250.09;;;8.25;100.00
24746;BME280;12845;52.042;6.838;2023-04-25T08:37:48;-18250.78;;;8.27;100.00
24746;BME280;12845;52.042;6.838;2023-04-25T08:40:15;-18256.59;;;8.49;100.00
24746;BME280;12845;52.042;6.838;2023-04-25T08:42:44;-18252.19;;;8.32;100.00
24746;BME280;12845;52.042;6.838;2023-04-25T08:45:10;-18251.63;;;8.30;100.00
24746;BME280;12845;52.042;6.838;2023-04-25T08:47:38;-18249.41;;;8.22;100.00
24746;BME280;12845;52.042;6.838;2023-04-25T08:50:04;-18248.47;;;8.19;100.00
24746;BME280;12845;52.042;6.838;2023-04-25T08:52:36;-18251.63;;;8.30;100.00
24746;BME280;12845;52.042;6.838;2023-04-25T08:55:02;-18248.03;;;8.17;100.00
24746;BME280;12845;52.042;6.838;2023-04-25T08:57:31;-18248.31;;;8.18;100.00
24746;BME280;12845;52.042;6.838;2023-04-25T08:59:57;-18245.97;;;8.09;100.00
24746;BME280;12845;52.042;6.838;2023-04-25T09:02:24;-18243.09;;;7.99;100.00
24746;BME280;12845;52.042;6.838;2023-04-25T09:04:50;-18241.72;;;7.94;100.00
24746;BME280;12845;52.042;6.838;2023-04-25T09:07:15;-18240.47;;;7.89;100.00
24746;BME280;12845;52.042;6.838;2023-04-25T09:09:43;-18243.50;;;8.00;100.00
24746;BME280;12845;52.042;6.838;2023-04-25T09:12:09;-18248.88;;;8.20;100.00
24746;BME280;12845;52.042;6.838;2023-04-25T09:14:35;-18250.09;;;8.25;100.00
24746;BME280;12845;52.042;6.838;2023-04-25T09:17:03;-18249.41;;;8.22;100.00
24746;BME280;12845;52.042;6.838;2023-04-25T09:19:34;-18254.09;;;8.40;100.00
24746;BME280;12845;52.042;6.838;2023-04-25T09:22:03;-18257.28;;;8.51;100.00
24746;BME280;12845;52.042;6.838;2023-04-25T09:24:36;-18256.88;;;8.50;100.00
24746;BME280;12845;52.042;6.838;2023-04-25T09:27:06;-18255.06;;;8.43;100.00
24746;BME280;12845;52.042;6.838;2023-04-25T09:29:36;-18253.13;;;8.36;100.00
24746;BME280;12845;52.042;6.838;2023-04-25T09:32:19;-18253.97;;;8.39;100.00
24746;BME280;12845;52.042;6.838;2023-04-25T09:34:56;-18254.94;;;8.43;100.00
24746;BME280;12845;52.042;6.838;2023-04-25T09:37:26;-18252.72;;;8.34;100.00
24746;BME280;12845;52.042;6.838;2023-04-25T09:40:05;-18250.53;;;8.26;100.00
24746;BME280;12845;52.042;6.838;2023-04-25T09:42:32;-18252.19;;;8.32;100.00
24746;BME280;12845;52.042;6.838;2023-04-25T09:45:00;-18254.94;;;8.43;100.00
24746;BME280;12845;52.042;6.838;2023-04-25T09:47:27;-18255.91;;;8.46;100.00
24746;BME280;12845;52.042;6.838;2023-04-25T09:49:54;-18252.19;;;8.32;100.00
24746;BME280;12845;52.042;6.838;2023-04-25T09:52:24;-18253.69;;;8.38;100.00
24746;BME280;12845;52.042;6.838;2023-04-25T09:54:50;-18256.59;;;8.49;100.00
24746;BME280;12845;52.042;6.838;2023-04-25T09:59:46;-18258.66;;;8.56;100.00
24746;BME280;12845;52.042;6.838;2023-04-25T10:02:14;-18258.66;;;8.56;100.00
24746;BME280;12845;52.042;6.838;2023-04-25T10:04:41;-18261.00;;;8.65;100.00
24746;BME280;12845;52.042;6.838;2023-04-25T10:07:08;-18259.63;;;8.60;100.00
24746;BME280;12845;52.042;6.838;2023-04-25T10:09:37;-18260.44;;;8.63;100.00
24746;BME280;12845;52.042;6.838;2023-04-25T10:12:03;-18258.09;;;8.54;100.00
24746;BME280;12845;52.042;6.838;2023-04-25T10:14:31;-18254.94;;;8.43;100.00
24746;BME280;12845;52.042;6.838;2023-04-25T10:16:58;-18259.06;;;8.58;100.00
24746;BME280;12845;52.042;6.838;2023-04-25T10:19:24;-18263.19;;;8.73;100.00
24746;BME280;12845;52.042;6.838;2023-04-25T10:21:52;-18272.53;;;9.08;100.00
24746;BME280;12845;52.042;6.838;2023-04-25T10:24:19;-18274.06;;;9.14;100.00
24746;BME280;12845;52.042;6.838;2023-04-25T10:26:46;-18281.34;;;9.41;100.00
24746;BME280;12845;52.042;6.838;2023-04-25T10:29:12;-18283.00;;;9.47;100.00
24746;BME280;12845;52.042;6.838;2023-04-25T10:31:46;-18278.06;;;9.29;100.00
24746;BME280;12845;52.042;6.838;2023-04-25T10:34:15;-18275.16;;;9.18;100.00
24746;BME280;12845;52.042;6.838;2023-04-25T10:36:41;-18282.59;;;9.45;100.00
24746;BME280;12845;52.042;6.838;2023-04-25T10:39:07;-18277.91;;;9.28;100.00
24746;BME280;12845;52.042;6.838;2023-04-25T10:41:53;-18271.72;;;9.05;100.00
24746;BME280;12845;52.042;6.838;2023-04-25T10:44:20;-18270.63;;;9.01;100.00
24746;BME280;12845;52.042;6.838;2023-04-25T10:46:45;-18259.19;;;8.58;100.00
24746;BME280;12845;52.042;6.838;2023-04-25T10:49:28;-18257.41;;;8.52;100.00
24746;BME280;12845;52.042;6.838;2023-04-25T10:52:11;-18249.84;;;8.24;100.00
24746;BME280;12845;52.042;6.838;2023-04-25T10:55:02;-18250.66;;;8.27;100.00
24746;BME280;12845;52.042;6.838;2023-04-25T10:57:36;-18247.22;;;8.14;100.00
24746;BME280;12845;52.042;6.838;2023-04-25T11:02:31;-18242.53;;;7.97;100.00
24746;BME280;12845;52.042;6.838;2023-04-25T11:04:56;-18240.75;;;7.90;100.00
24746;BME280;12845;52.042;6.838;2023-04-25T11:07:44;-18241.03;;;7.91;100.00
24746;BME280;12845;52.042;6.838;2023-04-25T11:10:14;-18244.47;;;8.04;100.00
24746;BME280;12845;52.042;6.838;2023-04-25T11:12:39;-18246.66;;;8.12;100.00
24746;BME280;12845;52.042;6.838;2023-04-25T11:15:06;-18249.16;;;8.21;100.00
24746;BME280;12845;52.042;6.838;2023-04-25T11:17:32;-18245.56;;;8.08;100.00
24746;BME280;12845;52.042;6.838;2023-04-25T11:19:58;-18244.19;;;8.03;100.00
24746;BME280;12845;52.042;6.838;2023-04-25T11:22:24;-18245.28;;;8.07;100.00
24746;BME280;12845;52.042;6.838;2023-04-25T11:24:51;-18249.84;;;8.24;100.00
24746;BME280;12845;52.042;6.838;2023-04-25T11:27:17;-18245.97;;;8.09;100.00
24746;BME280;12845;52.042;6.838;2023-04-25T11:29:42;-18246.66;;;8.12;100.00
24746;BME280;12845;52.042;6.838;2023-04-25T11:32:08;-18253.13;;;8.36;100.00
24746;BME280;12845;52.042;6.838;2023-04-25T11:34:33;-18254.38;;;8.41;100.00
24746;BME280;12845;52.042;6.838;2023-04-25T11:37:00;-18258.78;;;8.57;100.00
24746;BME280;12845;52.042;6.838;2023-04-25T11:39:27;-18265.81;;;8.83;100.00
24746;BME280;12845;52.042;6.838;2023-04-25T11:41:53;-18270.34;;;9.00;100.00
24746;BME280;12845;52.042;6.838;2023-04-25T11:44:20;-18276.81;;;9.24;100.00
24746;BME280;12845;52.042;6.838;2023-04-25T11:46:46;-18280.25;;;9.37;100.00
24746;BME280;12845;52.042;6.838;2023-04-25T11:49:12;-18292.50;;;9.82;100.00
24746;BME280;12845;52.042;6.838;2023-04-25T11:51:42;-18297.31;;;10.00;100.00
24746;BME280;12845;52.042;6.838;2023-04-25T11:54:08;-18299.50;;;10.08;100.00
24746;BME280;12845;52.042;6.838;2023-04-25T11:56:34;-18294.00;;;9.88;100.00
24746;BME280;12845;52.042;6.838;2023-04-25T11:59:01;-18294.81;;;9.91;100.00
24746;BME280;12845;52.042;6.838;2023-04-25T12:01:27;-18291.66;;;9.79;100.00
24746;BME280;12845;52.042;6.838;2023-04-25T12:03:53;-18291.94;;;9.80;100.00
24746;BME280;12845;52.042;6.838;2023-04-25T12:06:18;-18298.81;;;10.06;100.00
24746;BME280;12845;52.042;6.838;2023-04-25T12:09:01;-18306.66;;;10.35;100.00
24746;BME280;12845;52.042;6.838;2023-04-25T12:11:26;-18313.25;;;10.59;100.00
24746;BME280;12845;52.042;6.838;2023-04-25T12:13:52;-18324.94;;;11.03;100.00
24746;BME280;12845;52.042;6.838;2023-04-25T12:16:18;-18328.63;;;11.17;100.00
24746;BME280;12845;52.042;6.838;2023-04-25T12:18:43;-18333.56;;;11.35;100.00
24746;BME280;12845;52.042;6.838;2023-04-25T12:21:09;-18332.75;;;11.32;100.00
24746;BME280;12845;52.042;6.838;2023-04-25T12:23:38;-18345.25;;;11.79;100.00
24746;BME280;12845;52.042;6.838;2023-04-25T12:26:04;-18340.16;;;11.60;100.00
24746;BME280;12845;52.042;6.838;2023-04-25T12:28:32;-18333.31;;;11.34;100.00
24746;BME280;12845;52.042;6.838;2023-04-25T12:31:06;-18335.22;;;11.41;100.00
24746;BME280;12845;52.042;6.838;2023-04-25T12:33:33;-18333.03;;;11.33;100.00
24746;BME280;12845;52.042;6.838;2023-04-25T12:35:59;-18327.25;;;11.12;100.00
24746;BME280;12845;52.042;6.838;2023-04-25T12:38:30;-18322.44;;;10.94;100.00
24746;BME280;12845;52.042;6.838;2023-04-25T12:40:56;-18324.50;;;11.01;100.00
24746;BME280;12845;52.042;6.838;2023-04-25T12:43:22;-18325.06;;;11.03;100.00
24746;BME280;12845;52.042;6.838;2023-04-25T12:45:49;-18326.16;;;11.07;100.00
24746;BME280;12845;52.042;6.838;2023-04-25T12:48:15;-18330.00;;;11.22;98.65
24746;BME280;12845;52.042;6.838;2023-04-25T12:50:40;-18334.66;;;11.39;100.00